Time;durP1;ratioP1;P1;durP2;ratioP2;P2;SDS_P1;SDS_P2;PMS_P1;PMS_P2;Temp;Humidity;BMP_temperature;BMP_pressure;BME280_temperature;BME280_humidity;BME280_pressure;Samples;Min_cycle;Max_cycle;Signal;HPM_P1;HPM_P2
2023/07/26 00:01:50;;;;;;;2.40;2.00;;;;;;;14.63;80.11;99525.20;105468;1257;69128;-68
2023/07/26 00:04:17;;;;;;;3.70;1.90;;;;;;;14.61;79.99;99528.52;105450;1259;69193;-67
2023/07/26 00:06:44;;;;;;;4.40;2.00;;;;;;;14.58;80.35;99527.86;105497;1257;74831;-68
2023/07/26 00:09:11;;;;;;;2.90;2.10;;;;;;;14.58;80.53;99530.88;105495;1259;83427;-67
2023/07/26 00:11:38;;;;;;;3.20;2.00;;;;;;;14.58;80.87;99531.38;105414;1258;73979;-67
2023/07/26 00:14:06;;;;;;;4.50;2.10;;;;;;;14.59;81.06;99529.36;105450;1256;69140;-67
2023/07/26 00:16:33;;;;;;;3.10;1.90;;;;;;;14.60;81.28;99530.17;105463;1254;69170;-67
2023/07/26 00:19:01;;;;;;;5.00;1.90;;;;;;;14.60;81.30;99529.45;105543;1257;74527;-69
2023/07/26 00:21:28;;;;;;;6.50;2.30;;;;;;;14.60;81.31;99527.56;105466;1257;83313;-70
2023/07/26 00:23:56;;;;;;;8.40;2.20;;;;;;;14.57;81.10;99520.38;105526;1258;73075;-71
2023/07/26 00:26:23;;;;;;;5.20;2.00;;;;;;;14.54;81.26;99524.46;105480;1259;69168;-70
2023/07/26 00:28:50;;;;;;;4.10;2.20;;;;;;;14.49;81.37;99526.09;105539;1257;69132;-70
2023/07/26 00:31:17;;;;;;;4.40;2.00;;;;;;;14.46;81.80;99521.96;105438;1254;74992;-70
2023/07/26 00:33:45;;;;;;;4.30;2.10;;;;;;;14.45;82.18;99524.62;105536;1258;83613;-71
2023/07/26 00:36:12;;;;;;;4.20;2.10;;;;;;;14.45;82.09;99525.84;105291;1259;72781;-70
2023/07/26 00:38:39;;;;;;;3.80;2.40;;;;;;;14.44;82.39;99525.09;105459;1257;69128;-70
2023/07/26 00:41:07;;;;;;;7.30;3.00;;;;;;;14.43;82.59;99525.83;105516;1257;69385;-71
2023/07/26 00:43:34;;;;;;;3.70;2.70;;;;;;;14.40;82.44;99516.73;105466;1257;74889;-71
2023/07/26 00:46:03;;;;;;;5.10;2.60;;;;;;;14.40;82.80;99518.30;105257;1259;83699;-70
2023/07/26 00:48:31;;;;;;;4.90;2.80;;;;;;;14.41;83.12;99515.45;105530;1257;73763;-71
2023/07/26 00:51:00;;;;;;;5.40;2.90;;;;;;;14.40;83.19;99517.94;105482;1256;69218;-70
2023/07/26 00:53:28;;;;;;;4.70;2.60;;;;;;;14.41;83.31;99518.20;105295;1258;69269;-70
2023/07/26 00:55:58;;;;;;;4.80;2.90;;;;;;;14.40;83.17;99522.54;105358;1257;75534;-70
2023/07/26 00:58:25;;;;;;;7.70;3.00;;;;;;;14.39;83.34;99527.19;105486;1257;83328;-70
2023/07/26 01:00:53;;;;;;;5.00;2.70;;;;;;;14.39;83.45;99525.59;105454;1257;73644;-70
2023/07/26 01:03:21;;;;;;;5.70;3.00;;;;;;;14.37;83.60;99527.81;105523;1259;69135;-70
2023/07/26 01:06:04;;;;;;;6.10;2.90;;;;;;;14.37;83.98;99528.20;105526;1256;69204;-69
2023/07/26 01:08:39;;;;;;;4.30;2.80;;;;;;;14.37;83.87;99527.64;105479;1258;74732;-70
2023/07/26 01:11:17;;;;;;;3.70;2.90;;;;;;;14.34;83.99;99528.56;105530;1257;83339;-70
2023/07/26 01:13:49;;;;;;;4.40;3.10;;;;;;;14.31;84.01;99528.56;105513;1257;73513;-70
2023/07/26 01:16:17;;;;;;;6.60;3.90;;;;;;;14.31;84.46;99534.40;105477;1266;69142;-70
2023/07/26 01:18:44;;;;;;;5.60;2.90;;;;;;;14.30;84.63;99535.33;105451;1257;69125;-69
2023/07/26 01:21:12;;;;;;;7.10;3.40;;;;;;;14.28;84.67;99535.77;105524;1255;73668;-68
2023/07/26 01:23:39;;;;;;;5.70;3.20;;;;;;;14.28;84.87;99539.30;105482;1258;83146;-69
2023/07/26 01:26:06;;;;;;;4.90;3.00;;;;;;;14.29;85.30;99539.60;105290;1257;73805;-69
2023/07/26 01:28:33;;;;;;;6.00;3.40;;;;;;;14.31;85.50;99543.32;105550;1257;69183;-68
2023/07/26 01:31:02;;;;;;;5.30;3.80;;;;;;;14.32;85.47;99546.77;105460;1257;69212;-69
2023/07/26 01:33:32;;;;;;;7.00;4.30;;;;;;;14.30;85.44;99549.39;105311;1259;73766;-69
2023/07/26 01:36:00;;;;;;;6.70;4.20;;;;;;;14.31;85.73;99548.99;105299;1259;83339;-69
2023/07/26 01:38:28;;;;;;;5.70;3.80;;;;;;;14.33;85.95;99554.83;105321;1254;73432;-69
2023/07/26 01:40:57;;;;;;;7.10;4.20;;;;;;;14.34;86.28;99556.30;105340;1258;69170;-70
2023/07/26 01:43:24;;;;;;;6.10;3.90;;;;;;;14.37;86.40;99560.70;105521;1257;69125;-69
2023/07/26 01:45:51;;;;;;;4.60;4.10;;;;;;;14.40;86.40;99563.66;105506;1257;74918;-70
2023/07/26 01:48:19;;;;;;;4.80;3.90;;;;;;;14.40;86.51;99564.69;105484;1257;82256;-70
2023/07/26 01:50:46;;;;;;;8.00;3.70;;;;;;;14.41;86.33;99571.86;105441;1257;73540;-70
2023/07/26 01:53:13;;;;;;;5.00;3.90;;;;;;;14.42;86.87;99572.29;105444;1257;69137;-70
2023/07/26 01:55:40;;;;;;;6.40;4.00;;;;;;;14.44;86.80;99573.73;105471;1254;69163;-69
2023/07/26 01:58:07;;;;;;;7.60;4.00;;;;;;;14.44;86.98;99571.45;105410;1254;74987;-68
2023/07/26 02:00:34;;;;;;;5.30;3.80;;;;;;;14.46;87.03;99571.70;105320;1258;83434;-69
2023/07/26 02:03:01;;;;;;;8.00;4.50;;;;;;;14.46;87.07;99565.88;105429;1254;73613;-69
2023/07/26 02:05:30;;;;;;;6.10;4.30;;;;;;;14.46;87.18;99566.76;105362;1260;69267;-68
2023/07/26 02:07:57;;;;;;;7.60;4.80;;;;;;;14.44;86.94;99567.06;105327;1254;69047;-69
2023/07/26 02:10:24;;;;;;;6.00;4.10;;;;;;;14.41;87.09;99564.99;105359;1260;74676;-69
2023/07/26 02:12:51;;;;;;;6.80;4.70;;;;;;;14.41;87.21;99567.60;105436;1257;83243;-69
2023/07/26 02:15:18;;;;;;;5.30;4.10;;;;;;;14.40;87.56;99567.13;105271;1259;72578;-69
2023/07/26 02:17:45;;;;;;;7.70;4.10;;;;;;;14.42;87.75;99565.27;105457;1257;69126;-69
2023/07/26 02:20:12;;;;;;;6.30;4.00;;;;;;;14.43;87.83;99566.05;105487;1259;69122;-69
2023/07/26 02:22:41;;;;;;;9.10;5.40;;;;;;;14.43;87.82;99565.38;105495;1255;73683;-69
2023/07/26 02:25:09;;;;;;;7.10;4.50;;;;;;;14.41;87.59;99571.64;105460;1257;83404;-69
2023/07/26 02:27:37;;;;;;;5.80;5.00;;;;;;;14.39;87.50;99577.41;105503;1257;73766;-69
2023/07/26 02:30:05;;;;;;;7.20;4.60;;;;;;;14.36;87.60;99582.02;105458;1257;69195;-69
2023/07/26 02:32:32;;;;;;;7.50;4.50;;;;;;;14.33;87.41;99585.60;105307;1258;69180;-68
2023/07/26 02:34:59;;;;;;;5.80;4.40;;;;;;;14.29;87.71;99586.66;105485;1254;74804;-69
2023/07/26 02:37:26;;;;;;;8.30;4.70;;;;;;;14.28;87.91;99590.76;105447;1254;83364;-69
2023/07/26 02:39:53;;;;;;;7.50;4.10;;;;;;;14.27;87.87;99590.49;105409;1254;73642;-68
2023/07/26 02:42:20;;;;;;;7.10;4.60;;;;;;;14.26;88.03;99596.20;105504;1258;69510;-69
2023/07/26 02:44:47;;;;;;;5.70;4.40;;;;;;;14.23;87.96;99597.08;105445;1257;69203;-69
2023/07/26 02:47:16;;;;;;;6.20;4.30;;;;;;;14.22;88.02;99601.05;105590;1254;73679;-68
2023/07/26 02:49:43;;;;;;;5.90;4.40;;;;;;;14.21;88.22;99605.50;105463;1257;83613;-68
2023/07/26 02:52:10;;;;;;;6.40;4.30;;;;;;;14.21;88.44;99605.51;105444;1257;72594;-68
2023/07/26 02:54:37;;;;;;;6.10;4.50;;;;;;;14.22;88.68;99611.05;105532;1256;69208;-67
2023/07/26 02:57:05;;;;;;;6.20;4.00;;;;;;;14.21;88.65;99610.36;105446;1254;69168;-69
2023/07/26 02:59:32;;;;;;;8.00;4.40;;;;;;;14.21;88.90;99611.98;105401;1258;73803;-67
2023/07/26 03:01:59;;;;;;;6.70;4.10;;;;;;;14.24;89.02;99613.73;105488;1256;83387;-67
2023/07/26 03:04:26;;;;;;;8.20;4.40;;;;;;;14.26;89.27;99614.27;105375;1257;73759;-68
2023/07/26 03:06:54;;;;;;;7.30;4.40;;;;;;;14.27;89.09;99617.74;105475;1256;69167;-68
2023/07/26 03:09:21;;;;;;;6.30;4.00;;;;;;;14.25;88.83;99622.10;105505;1255;69225;-67
2023/07/26 03:11:48;;;;;;;9.60;4.20;;;;;;;14.23;89.07;99624.35;105493;1254;74997;-68
2023/07/26 03:14:15;;;;;;;7.00;4.30;;;;;;;14.22;89.17;99625.65;105487;1257;83340;-68
2023/07/26 03:16:42;;;;;;;6.40;4.10;;;;;;;14.21;89.25;99632.73;105472;1257;73564;-67
2023/07/26 03:19:11;;;;;;;6.40;3.80;;;;;;;14.19;89.28;99633.17;105534;1256;69169;-68
2023/07/26 03:21:38;;;;;;;7.40;4.40;;;;;;;14.18;89.44;99635.87;105493;1254;69122;-69
2023/07/26 03:24:05;;;;;;;7.10;4.00;;;;;;;14.18;89.44;99640.30;105519;1257;75067;-69
2023/07/26 03:26:32;;;;;;;8.60;4.40;;;;;;;14.15;89.29;99645.05;105481;1258;83542;-68
2023/07/26 03:29:00;;;;;;;6.50;4.40;;;;;;;14.13;89.43;99646.42;105518;1257;73882;-70
2023/07/26 03:31:27;;;;;;;6.20;3.90;;;;;;;14.11;89.60;99645.35;105496;1257;69190;-67
2023/07/26 03:33:56;;;;;;;5.70;4.20;;;;;;;14.09;89.81;99649.66;105510;1257;69215;-68
2023/07/26 03:36:23;;;;;;;8.30;4.70;;;;;;;14.06;89.75;99656.17;105462;1254;74815;-68
2023/07/26 03:38:50;;;;;;;8.00;4.10;;;;;;;14.03;89.94;99662.84;105462;1258;82325;-68
2023/07/26 03:41:17;;;;;;;7.60;4.10;;;;;;;14.01;90.13;99664.04;105447;1254;73635;-68
2023/07/26 03:43:44;;;;;;;7.60;4.20;;;;;;;14.00;90.45;99657.23;105536;1257;69171;-69
2023/07/26 03:46:12;;;;;;;7.70;4.50;;;;;;;14.00;90.52;99656.73;105459;1254;69081;-68
2023/07/26 03:48:39;;;;;;;7.20;4.10;;;;;;;13.99;90.64;99660.81;105460;1254;75050;-70
2023/07/26 03:51:06;;;;;;;9.70;4.50;;;;;;;13.97;90.62;99661.98;105502;1251;83432;-70
2023/07/26 03:53:33;;;;;;;8.40;4.50;;;;;;;13.96;90.73;99667.71;105507;1257;73807;-71
2023/07/26 03:56:00;;;;;;;7.40;4.40;;;;;;;13.93;90.66;99665.96;105424;1257;69208;-70
2023/07/26 03:58:27;;;;;;;8.20;4.20;;;;;;;13.92;90.90;99671.11;105314;1254;69172;-70
2023/07/26 04:00:54;;;;;;;6.00;3.80;;;;;;;13.90;90.89;99674.73;105545;1255;73859;-69
2023/07/26 04:03:21;;;;;;;5.20;4.00;;;;;;;13.89;90.92;99681.50;105501;1257;83358;-67
2023/07/26 04:05:49;;;;;;;8.20;4.30;;;;;;;13.88;91.28;99688.04;105475;1257;72531;-68
2023/07/26 04:08:16;;;;;;;4.90;4.00;;;;;;;13.89;91.71;99692.00;105496;1256;69089;-68
2023/07/26 04:10:43;;;;;;;5.20;3.90;;;;;;;13.92;91.81;99696.90;105518;1257;69104;-67
2023/07/26 04:13:10;;;;;;;9.50;4.40;;;;;;;13.94;91.99;99692.40;105545;1257;75455;-67
2023/07/26 04:15:37;;;;;;;7.10;4.60;;;;;;;13.96;92.02;99694.73;105578;1257;83346;-67
2023/07/26 04:18:07;;;;;;;7.70;4.40;;;;;;;13.96;91.74;99693.67;105542;1257;72890;-68
2023/07/26 04:20:35;;;;;;;7.50;3.90;;;;;;;13.95;91.70;99691.45;105626;1256;69084;-69
2023/07/26 04:23:02;;;;;;;6.60;4.60;;;;;;;13.94;91.78;99690.46;105551;1252;69202;-71
2023/07/26 04:25:29;;;;;;;8.70;5.10;;;;;;;13.92;91.75;99693.20;105539;1254;74809;-70
2023/07/26 04:27:56;;;;;;;7.70;4.00;;;;;;;13.92;91.73;99699.93;105457;1258;83563;-70
2023/07/26 04:30:23;;;;;;;8.70;4.20;;;;;;;13.92;92.01;99698.70;105430;1254;73894;-69
2023/07/26 04:32:50;;;;;;;9.60;5.00;;;;;;;13.90;91.85;99698.42;105456;1254;69121;-69
2023/07/26 04:35:17;;;;;;;12.30;4.20;;;;;;;13.89;92.06;99702.91;105465;1251;69217;-70
2023/07/26 04:37:44;;;;;;;9.70;4.30;;;;;;;13.89;92.15;99704.29;105463;1257;74737;-70
2023/07/26 04:40:12;;;;;;;6.90;4.10;;;;;;;13.88;92.05;99706.45;105341;1254;83841;-70
2023/07/26 04:42:39;;;;;;;7.40;3.70;;;;;;;13.87;92.40;99712.70;105450;1257;73865;-70
2023/07/26 04:45:07;;;;;;;6.20;4.20;;;;;;;13.88;92.53;99718.40;105556;1253;69234;-70
2023/07/26 04:47:34;;;;;;;5.60;4.20;;;;;;;13.89;92.56;99722.21;105488;1251;69173;-69
2023/07/26 04:50:01;;;;;;;5.50;3.80;;;;;;;13.92;92.84;99730.30;105555;1252;74757;-68
2023/07/26 04:52:28;;;;;;;8.30;4.20;;;;;;;13.96;92.97;99732.16;105517;1257;83364;-69
2023/07/26 04:54:56;;;;;;;9.30;4.80;;;;;;;13.97;93.08;99729.42;105512;1256;73928;-69
2023/07/26 04:57:23;;;;;;;8.90;4.90;;;;;;;14.02;93.35;99732.64;105544;1258;69189;-67
2023/07/26 04:59:50;;;;;;;6.00;4.40;;;;;;;14.03;92.77;99738.02;105503;1252;69087;-66
2023/07/26 05:02:17;;;;;;;12.00;4.20;;;;;;;14.00;92.66;99735.21;105509;1254;73752;-68
2023/07/26 05:04:44;;;;;;;9.10;4.60;;;;;;;13.98;93.11;99742.38;105552;1256;83695;-69
2023/07/26 05:07:11;;;;;;;6.50;4.10;;;;;;;13.94;93.19;99745.80;105492;1254;73763;-64
2023/07/26 05:09:38;;;;;;;7.80;3.70;;;;;;;13.94;93.71;99749.48;105462;1254;69014;-64
2023/07/26 05:12:05;;;;;;;5.70;3.70;;;;;;;13.97;94.07;99753.50;105647;1254;69113;-66
2023/07/26 05:14:32;;;;;;;8.60;3.50;;;;;;;13.94;93.60;99756.31;105750;1254;73817;-65
2023/07/26 05:16:59;;;;;;;5.00;3.30;;;;;;;13.92;94.05;99754.15;105515;1256;83290;-66
2023/07/26 05:19:27;;;;;;;9.70;3.80;;;;;;;13.93;94.19;99757.78;105645;1258;72646;-66
2023/07/26 05:21:54;;;;;;;6.10;3.60;;;;;;;13.94;94.27;99757.05;105510;1253;69102;-65
2023/07/26 05:24:21;;;;;;;6.60;4.00;;;;;;;13.95;94.62;99758.38;105517;1255;69104;-65
2023/07/26 05:26:48;;;;;;;6.50;3.80;;;;;;;13.97;94.87;99761.75;105642;1254;75037;-67
2023/07/26 05:29:15;;;;;;;6.10;3.50;;;;;;;13.98;94.75;99764.21;105459;1257;83567;-68
2023/07/26 05:31:42;;;;;;;6.70;3.80;;;;;;;13.97;94.85;99761.58;105640;1257;73625;-68
2023/07/26 05:34:09;;;;;;;11.80;4.00;;;;;;;13.98;94.97;99765.02;105658;1257;69125;-68
2023/07/26 05:36:36;;;;;;;6.10;3.40;;;;;;;13.98;95.02;99766.09;105453;1257;69103;-68
2023/07/26 05:39:04;;;;;;;6.70;3.40;;;;;;;14.00;95.34;99765.10;105569;1253;75052;-68
2023/07/26 05:41:31;;;;;;;6.60;3.60;;;;;;;14.00;94.87;99768.79;105514;1257;83769;-67
2023/07/26 05:43:59;;;;;;;5.60;3.20;;;;;;;13.97;94.92;99769.34;105461;1255;72658;-68
2023/07/26 05:46:26;;;;;;;6.50;3.10;;;;;;;13.97;95.03;99771.98;105401;1254;69137;-68
2023/07/26 05:48:53;;;;;;;7.80;3.80;;;;;;;13.97;95.07;99772.48;105618;1256;69122;-67
2023/07/26 05:51:20;;;;;;;7.30;3.60;;;;;;;13.95;95.19;99779.44;105596;1253;74847;-67
2023/07/26 05:53:48;;;;;;;7.70;3.60;;;;;;;13.96;95.18;99781.15;105463;1254;83616;-69
2023/07/26 05:56:15;;;;;;;6.60;3.50;;;;;;;13.97;95.46;99788.48;105440;1254;73768;-69
2023/07/26 05:58:42;;;;;;;5.70;3.50;;;;;;;14.01;95.82;99790.17;105543;1255;69020;-69
2023/07/26 06:01:13;;;;;;;6.20;3.60;;;;;;;14.06;95.93;99795.81;105426;1254;69201;-69
2023/07/26 06:03:39;;;;;;;6.40;3.80;;;;;;;14.10;95.96;99798.21;105412;1257;74797;-69
2023/07/26 06:06:07;;;;;;;5.00;3.70;;;;;;;14.13;96.11;99802.07;105344;1258;83669;-69
2023/07/26 06:08:34;;;;;;;7.90;4.00;;;;;;;14.18;96.48;99803.17;105330;1259;73779;-69
2023/07/26 06:11:01;;;;;;;7.00;4.30;;;;;;;14.24;96.58;99806.98;105377;1254;69145;-69
2023/07/26 06:13:28;;;;;;;8.20;4.70;;;;;;;14.29;96.49;99808.95;105423;1254;69096;-68
2023/07/26 06:15:55;;;;;;;9.30;4.30;;;;;;;14.32;96.71;99807.24;105408;1254;74820;-69
2023/07/26 06:18:22;;;;;;;6.70;4.50;;;;;;;14.36;96.84;99810.48;105378;1254;83541;-69
2023/07/26 06:20:49;;;;;;;10.70;4.90;;;;;;;14.37;96.55;99811.66;105722;1257;73608;-68
2023/07/26 06:23:16;;;;;;;9.50;4.40;;;;;;;14.39;96.45;99810.67;105579;1257;69157;-69
2023/07/26 06:25:43;;;;;;;10.30;4.60;;;;;;;14.39;96.12;99814.66;105433;1254;69253;-69
2023/07/26 06:28:10;;;;;;;10.20;5.00;;;;;;;14.40;96.46;99813.77;105739;1253;74840;-69
2023/07/26 06:30:37;;;;;;;9.00;5.10;;;;;;;14.43;96.43;99814.13;105454;1257;83229;-69
2023/07/26 06:33:05;;;;;;;6.60;5.00;;;;;;;14.45;96.57;99817.84;105631;1256;73712;-69
2023/07/26 06:35:32;;;;;;;9.30;4.90;;;;;;;14.47;96.37;99824.02;105763;1254;69087;-68
2023/07/26 06:37:59;;;;;;;6.80;4.40;;;;;;;14.45;95.72;99825.73;105499;1257;69206;-68
2023/07/26 06:40:26;;;;;;;11.50;4.30;;;;;;;14.41;95.61;99831.97;105494;1254;74952;-68
2023/07/26 06:42:53;;;;;;;8.10;4.20;;;;;;;14.43;95.82;99836.95;105645;1257;83313;-68
2023/07/26 06:45:21;;;;;;;8.50;4.80;;;;;;;14.47;95.91;99839.70;105423;1258;72777;-68
2023/07/26 06:47:48;;;;;;;10.40;5.00;;;;;;;14.52;95.83;99843.64;105796;1254;69083;-68
2023/07/26 06:50:15;;;;;;;7.90;4.50;;;;;;;14.57;96.01;99847.72;105477;1257;69205;-68
2023/07/26 06:52:42;;;;;;;6.70;4.20;;;;;;;14.64;96.41;99853.27;105537;1256;74244;-68
2023/07/26 06:55:09;;;;;;;6.20;4.70;;;;;;;14.73;96.51;99858.65;105730;1253;83603;-68
2023/07/26 06:57:36;;;;;;;5.50;4.10;;;;;;;14.77;95.98;99862.52;105480;1257;73707;-68
2023/07/26 07:00:06;;;;;;;8.00;4.40;;;;;;;14.77;95.88;99860.52;105613;1257;69139;-68
2023/07/26 07:02:33;;;;;;;6.90;4.20;;;;;;;14.78;95.94;99867.73;105653;1257;69112;-68
2023/07/26 07:05:00;;;;;;;7.40;4.40;;;;;;;14.79;95.89;99866.42;105621;1252;73563;-68
2023/07/26 07:07:28;;;;;;;8.00;3.60;;;;;;;14.83;96.06;99870.89;105576;1257;83853;-68
2023/07/26 07:09:55;;;;;;;8.10;4.30;;;;;;;14.85;95.89;99868.27;105669;1257;73594;-67
2023/07/26 07:12:22;;;;;;;5.50;3.50;;;;;;;14.91;96.16;99867.22;105555;1253;69017;-68
2023/07/26 07:14:49;;;;;;;7.40;4.20;;;;;;;15.00;96.11;99867.38;105426;1253;69193;-69
2023/07/26 07:17:16;;;;;;;6.70;4.00;;;;;;;15.04;95.68;99864.79;105625;1257;74864;-67
2023/07/26 07:19:46;;;;;;;5.60;3.50;;;;;;;15.06;95.68;99865.34;105529;1257;82344;-67
2023/07/26 07:22:13;;;;;;;;;;;;;;;15.08;95.59;99866.67;105557;1257;72449;-67
2023/07/26 07:24:41;;;;;;;6.70;3.20;;;;;;;15.06;95.51;99865.92;105447;1253;69089;-68
2023/07/26 07:27:08;;;;;;;7.90;3.60;;;;;;;15.07;95.75;99867.59;105681;1253;69196;-67
2023/07/26 07:29:35;;;;;;;5.10;3.60;;;;;;;15.13;95.88;99867.36;105507;1257;74498;-67
2023/07/26 07:32:05;;;;;;;6.80;3.90;;;;;;;15.23;95.81;99869.23;105585;1254;83322;-67
2023/07/26 07:34:48;;;;;;;6.90;3.30;;;;;;;15.33;95.50;99872.60;105554;1253;73762;-67
2023/07/26 07:37:15;;;;;;;5.20;3.30;;;;;;;15.46;95.56;99876.14;105598;1256;69200;-67
2023/07/26 07:39:42;;;;;;;6.30;3.40;;;;;;;15.56;95.14;99876.91;105672;1257;69245;-66
2023/07/26 07:42:09;;;;;;;4.50;3.40;;;;;;;15.64;94.66;99879.55;105593;1253;74815;-67
2023/07/26 07:44:37;;;;;;;6.90;3.30;;;;;;;15.74;94.43;99886.13;105386;1257;172373;-64
2023/07/26 07:47:04;;;;;;;7.40;3.40;;;;;;;15.88;94.47;99887.66;105563;1256;72737;-67
2023/07/26 07:49:34;;;;;;;;;;;;;;;16.00;93.75;99888.46;105702;1253;69052;-66
2023/07/26 07:52:01;;;;;;;8.10;2.90;;;;;;;16.08;93.30;99892.33;105614;1257;69190;-65
2023/07/26 07:54:28;;;;;;;3.90;2.50;;;;;;;16.16;92.95;99896.01;105541;1253;75331;-66
2023/07/26 07:56:55;;;;;;;4.50;2.40;;;;;;;16.25;92.73;99902.48;105538;1253;83286;-66
2023/07/26 07:59:22;;;;;;;6.10;2.70;;;;;;;16.29;91.96;99905.52;105659;1253;73670;-66
2023/07/26 08:01:49;;;;;;;4.30;2.80;;;;;;;16.29;91.21;99902.35;105485;1257;69127;-67
2023/07/26 08:04:17;;;;;;;7.40;2.90;;;;;;;16.29;91.14;99904.63;105486;1257;69131;-68
2023/07/26 08:06:44;;;;;;;5.90;2.60;;;;;;;16.32;90.75;99900.76;105489;1253;75220;-67
2023/07/26 08:09:11;;;;;;;5.20;2.70;;;;;;;16.33;90.37;99903.70;105436;1256;83182;-69
2023/07/26 08:11:38;;;;;;;5.30;2.80;;;;;;;16.37;90.24;99905.86;105527;1257;72605;-68
2023/07/26 08:14:05;;;;;;;8.20;3.00;;;;;;;16.43;89.86;99907.02;105553;1253;69041;-69
2023/07/26 08:16:32;;;;;;;4.70;2.60;;;;;;;16.50;89.67;99909.84;105573;1253;69354;-69
2023/07/26 08:19:01;;;;;;;6.60;3.80;;;;;;;16.59;89.55;99908.36;105528;1253;74684;-68
2023/07/26 08:21:28;;;;;;;5.50;3.20;;;;;;;16.69;89.30;99906.29;105611;1256;83213;-67
2023/07/26 08:23:55;;;;;;;8.60;3.10;;;;;;;16.74;88.72;99907.31;105452;1253;73543;-66
2023/07/26 08:26:23;;;;;;;5.50;3.20;;;;;;;16.75;88.52;99909.00;105608;1257;69218;-68
2023/07/26 08:28:50;;;;;;;5.40;3.40;;;;;;;16.83;88.48;99905.64;105760;1256;69166;-69
2023/07/26 08:31:17;;;;;;;6.30;3.30;;;;;;;16.92;88.39;99905.90;105537;1253;75597;-67
2023/07/26 08:33:44;;;;;;;5.90;3.00;;;;;;;17.02;88.15;99909.41;105555;1257;83752;-68
2023/07/26 08:36:11;;;;;;;5.80;3.70;;;;;;;17.07;87.93;99909.62;105515;1257;72642;-66
2023/07/26 08:38:38;;;;;;;7.10;3.50;;;;;;;17.18;87.60;99904.23;105554;1257;69192;-70
2023/07/26 08:41:07;;;;;;;9.50;3.50;;;;;;;17.23;86.84;99911.11;105520;1257;69115;-68
2023/07/26 08:43:37;;;;;;;7.30;3.20;;;;;;;17.21;85.96;99915.54;105584;1253;74857;-68
2023/07/26 08:46:06;;;;;;;6.20;2.80;;;;;;;17.22;86.10;99917.04;105645;1253;82268;-64
2023/07/26 08:48:33;;;;;;;7.50;2.90;;;;;;;17.25;85.60;99919.83;105666;1252;72819;-68
2023/07/26 08:51:01;;;;;;;4.60;2.60;;;;;;;17.26;84.89;99922.03;105550;1257;69263;-68
2023/07/26 08:53:28;;;;;;;6.60;2.20;;;;;;;17.26;84.59;99921.48;105556;1257;69117;-67
2023/07/26 08:55:55;;;;;;;10.40;3.00;;;;;;;17.27;84.32;99916.42;105602;1257;74848;-67
2023/07/26 08:58:23;;;;;;;5.90;2.80;;;;;;;17.31;84.24;99918.29;105630;1258;83404;-69
2023/07/26 09:00:50;;;;;;;7.40;2.60;;;;;;;17.40;84.45;99921.69;105571;1253;73441;-67
2023/07/26 09:03:17;;;;;;;2.60;1.70;;;;;;;17.44;83.64;99925.64;105472;1254;69168;-67
2023/07/26 09:05:45;;;;;;;6.60;2.30;;;;;;;17.51;83.75;99929.73;105697;1253;69972;-66
2023/07/26 09:08:13;;;;;;;6.00;1.90;;;;;;;17.60;83.34;99932.89;105712;1253;74760;-67
2023/07/26 09:10:40;;;;;;;4.10;1.50;;;;;;;17.72;83.34;99936.98;105793;1252;83804;-67
2023/07/26 09:13:12;;;;;;;4.60;1.70;;;;;;;17.86;83.18;99941.48;105504;1254;73729;-68
2023/07/26 09:15:40;;;;;;;3.30;2.10;;;;;;;17.99;82.38;99947.86;105628;1257;69128;-67
2023/07/26 09:18:08;;;;;;;7.00;2.70;;;;;;;18.02;81.36;99955.49;105617;1253;69175;-68
2023/07/26 09:20:37;;;;;;;34.90;20.30;;;;;;;18.08;81.04;99956.79;105659;1253;73811;-68
2023/07/26 09:23:04;;;;;;;15.00;7.90;;;;;;;18.03;79.99;99956.10;105704;1256;83166;-69
2023/07/26 09:25:38;;;;;;;9.30;2.70;;;;;;;17.98;79.73;99960.67;105602;1253;73966;-67
2023/07/26 09:28:15;;;;;;;6.80;2.20;;;;;;;17.99;79.71;99962.40;105554;1253;69178;-67
2023/07/26 09:30:45;;;;;;;4.60;2.10;;;;;;;18.01;79.18;99957.83;105661;1256;69232;-68
2023/07/26 09:33:13;;;;;;;;;;;;;;;18.01;79.04;99958.59;105661;1253;74819;-67
2023/07/26 09:35:53;;;;;;;8.70;1.70;;;;;;;18.00;78.19;99962.16;105628;1257;83363;-67
2023/07/26 09:38:25;;;;;;;10.00;2.10;;;;;;;18.02;77.55;99957.92;105631;1253;73917;-65
2023/07/26 09:40:53;;;;;;;4.40;1.30;;;;;;;18.11;77.00;99957.29;105583;1253;69115;-67
2023/07/26 09:43:30;;;;;;;7.40;1.50;;;;;;;18.19;76.69;99961.26;105545;1257;69122;-67
2023/07/26 09:46:02;;;;;;;5.00;1.50;;;;;;;18.29;75.94;99958.57;105638;1257;74316;-66
2023/07/26 09:48:33;;;;;;;6.10;1.40;;;;;;;18.40;75.93;99961.42;105577;1253;82631;-64
2023/07/26 09:51:08;;;;;;;6.70;1.90;;;;;;;18.50;75.31;99958.38;105174;1259;74018;-64
2023/07/26 09:53:39;;;;;;;4.00;1.50;;;;;;;18.60;75.18;99956.90;104791;1269;69187;-63
2023/07/26 09:56:07;;;;;;;3.60;1.30;;;;;;;18.71;74.82;99958.73;104924;1270;69312;-63
2023/07/26 09:58:35;;;;;;;4.40;1.60;;;;;;;18.81;74.48;99954.09;104992;1264;75312;-63
2023/07/26 10:01:02;;;;;;;4.70;1.40;;;;;;;18.90;73.75;99957.41;104797;1269;83522;-64
2023/07/26 10:03:31;;;;;;;4.10;1.40;;;;;;;19.00;73.41;99955.23;104998;1264;72591;-64
2023/07/26 10:05:59;;;;;;;5.30;1.60;;;;;;;19.08;72.93;99947.50;104746;1264;69188;-64
2023/07/26 10:08:26;;;;;;;5.20;1.50;;;;;;;19.22;72.97;99946.91;104729;1269;69374;-64
2023/07/26 10:10:56;;;;;;;6.70;1.50;;;;;;;19.37;72.52;99948.02;104899;1261;75125;-64
2023/07/26 10:13:24;;;;;;;5.90;1.20;;;;;;;19.39;71.32;99943.42;109098;1252;82942;-63
2023/07/26 10:15:52;;;;;;;7.00;1.40;;;;;;;19.47;70.63;99937.96;105812;1253;73879;-63
2023/07/26 10:18:22;;;;;;;6.70;1.00;;;;;;;19.62;70.19;99935.15;105500;1253;69197;-69
2023/07/26 10:20:49;;;;;;;4.40;1.10;;;;;;;19.82;69.62;99931.42;107533;1252;69166;-61
2023/07/26 10:23:17;;;;;;;6.40;1.30;;;;;;;19.93;68.07;99933.50;105678;1257;73247;-60
2023/07/26 10:25:45;;;;;;;3.20;0.90;;;;;;;20.06;67.47;99926.92;105700;1253;83636;-60
2023/07/26 10:28:13;;;;;;;3.10;0.80;;;;;;;20.14;66.30;99919.63;105475;1253;72775;-60
2023/07/26 10:30:40;;;;;;;4.30;0.90;;;;;;;20.28;66.03;99920.11;105611;1252;69142;-60
2023/07/26 10:33:14;;;;;;;6.00;1.20;;;;;;;20.42;65.42;99921.42;105550;1253;69125;-61
2023/07/26 10:35:44;;;;;;;2.70;0.80;;;;;;;20.43;64.50;99920.98;105644;1257;73707;-61
2023/07/26 10:38:15;;;;;;;2.50;1.00;;;;;;;20.32;63.22;99918.12;105721;1256;83271;-60
2023/07/26 10:40:43;;;;;;;2.80;0.90;;;;;;;20.29;63.02;99916.08;105617;1253;73643;-60
2023/07/26 10:43:20;;;;;;;4.40;1.10;;;;;;;20.31;62.40;99913.63;105457;1256;69183;-60
2023/07/26 10:45:49;;;;;;;4.40;1.20;;;;;;;20.15;61.64;99909.82;105510;1257;69212;-60
2023/07/26 10:48:36;;;;;;;4.40;1.00;;;;;;;20.13;61.90;99909.10;105479;1254;74860;-60
2023/07/26 10:51:25;;;;;;;3.60;1.10;;;;;;;20.06;61.44;99912.01;105433;1253;83555;-60
2023/07/26 10:53:53;;;;;;;3.60;1.00;;;;;;;19.90;61.07;99917.97;105490;1252;72635;-60
2023/07/26 10:56:47;;;;;;;9.20;1.30;;;;;;;19.68;60.91;99916.96;105489;1253;69231;-60
2023/07/26 10:59:14;;;;;;;4.50;0.90;;;;;;;19.40;60.71;99918.00;105322;1253;69209;-60
2023/07/26 11:01:46;;;;;;;2.30;0.80;;;;;;;19.14;60.59;99923.42;105447;1253;74772;-61
2023/07/26 11:04:15;;;;;;;1.80;0.90;;;;;;;18.87;60.48;99923.83;105461;1257;83561;-60
2023/07/26 11:06:51;;;;;;;3.70;0.90;;;;;;;18.63;60.71;99930.98;105477;1255;73843;-62
2023/07/26 11:09:26;;;;;;;2.10;0.90;;;;;;;18.56;61.39;99927.70;105457;1253;69018;-62
2023/07/26 11:11:54;;;;;;;7.50;1.00;;;;;;;18.51;61.30;99929.30;105514;1253;69173;-63
2023/07/26 11:14:23;;;;;;;3.80;1.30;;;;;;;18.48;61.58;99925.27;105499;1253;74782;-63
2023/07/26 11:16:53;;;;;;;3.80;1.30;;;;;;;18.62;61.56;99928.60;105494;1253;83325;-63
2023/07/26 11:19:25;;;;;;;3.20;1.10;;;;;;;18.82;61.57;99929.20;105482;1256;73708;-63
2023/07/26 11:21:52;;;;;;;5.00;1.40;;;;;;;18.88;60.92;99925.86;105495;1253;69126;-62
2023/07/26 11:24:27;;;;;;;3.20;1.20;;;;;;;18.94;61.01;99920.45;105478;1253;69140;-63
2023/07/26 11:26:54;;;;;;;4.20;1.30;;;;;;;19.07;61.01;99925.05;105498;1253;74776;-64
2023/07/26 11:29:21;;;;;;;3.50;1.10;;;;;;;19.24;60.96;99922.68;105504;1256;83607;-63
2023/07/26 11:31:48;;;;;;;2.30;1.10;;;;;;;19.48;60.96;99926.52;105456;1253;73754;-63